Raleigh, NC (27601)

4:08 AM EDT on July 26, 2017 (GMT -0400)
Raleigh Downtown | | Change Station

Elev 351 ft 35.78 °N, 78.64 °W | Updated 3 minutes ago

Overcast
Overcast
73.8 °F
Feels Like 75 °F
N
6.8
Wind Variable Wind from East
Gusts 6.8 mph

Today
High -- | Low -- °F
--% Chance of Precip.
Yesterday
High -- | Low -- °F
Precip. -- in
Pressure 30.14 in
Visibility 10.0 miles
Clouds Few 1700 ft
Few 2700 ft
Few 25000 ft
Heat Index 75 °F
Dew Point 65 °F
Humidity 74%
Rainfall 0.00 in
Snow Depth Not available.
6:17 AM 8:23 PM
Waxing Crescent, 11% visible
METAR KRDU 260751Z 06004KT 10SM FEW017 FEW027 FEW250 22/20 A3015 RMK AO2 SLP205 T02220200 $
Pressure 30.14 in
Visibility 10.0 miles
Clouds Few 1700 ft
Few 2700 ft
Few 25000 ft
Heat Index 75 °F
Dew Point 65 °F
Humidity 74%
Rainfall 0.00 in
Snow Depth Not available.
6:17 AM 8:23 PM
Waxing Crescent, 11% visible
METAR KRDU 260751Z 06004KT 10SM FEW017 FEW027 FEW250 22/20 A3015 RMK AO2 SLP205 T02220200 $

Get Severe Weather Alerts

Thanks for signing up!

Be on the lookout for a verification email in your inbox.

You'll start receiving the daily forecast at 6 AM.

×

10-Day Weather Forecast

Almanac

Astronomy

Jul. 26, 2017 Rise Set
Actual Time
Civil Twilight
Nautical Twilight
Astronomical Twilight
Moon
Length of Visible Light
Length of Day
Tomorrow will be .
, % of the Moon is Illuminated

Today's Extremes

State Highs State Lows

Community

WunderPhotos

Category 6

Welcome to Category 6. This is the collective home for Weather Underground's featured writeups by Dr. Jeff Masters (right), Bob Henson (left), Chris Burt, and other regular contributors.

Nearby

Air Quality

  Air Quality AQ Index Pollutant
Not available.

Snow Depth

Station Depth Elevation

Earthquake Activity

City Distance Mag. Time & Date
Minimum magnitude displayed is 2.5.

Coastal Water Temperatures

Place Temperature

Stations

Nearby Weather Stations

Station Location Temp. Windchill Dew Point Humidity Wind Precip. Elev Updated Type
                   

Watches & Warnings

There are currently no watches in effect.